Time;durP1;ratioP1;P1;durP2;ratioP2;P2;SDS_P1;SDS_P2;PMS_P1;PMS_P2;Temp;Humidity;BMP_temperature;BMP_pressure;BME280_temperature;BME280_humidity;BME280_pressure;Samples;Min_cycle;Max_cycle;Signal;HPM_P1;HPM_P2
2022/01/23 00:00:04;;;;;;;50.83;21.38;;;;;;;4.83;100.00;103499.25;5000376;28;20058;-74
2022/01/23 00:02:33;;;;;;;47.10;20.45;;;;;;;4.56;100.00;103457.84;4999695;28;20030;-73
2022/01/23 00:04:58;;;;;;;49.55;21.05;;;;;;;4.82;100.00;103493.94;4994429;28;20025;-74
2022/01/23 00:07:25;;;;;;;49.60;19.70;;;;;;;4.67;100.00;103466.59;4998952;28;20879;-73
2022/01/23 00:09:50;;;;;;;42.75;19.95;;;;;;;4.73;100.00;103481.63;4996955;28;20564;-73
2022/01/23 00:12:19;;;;;;;48.65;20.92;;;;;;;4.72;100.00;103479.88;4999313;28;20034;-74
2022/01/23 00:17:35;;;;;;;41.47;18.65;;;;;;;4.75;100.00;103487.81;4998756;28;20109;-73
2022/01/23 00:20:09;;;;;;;46.42;20.20;;;;;;;4.83;100.00;103491.25;4997913;28;20088;-74
2022/01/23 00:22:42;;;;;;;44.95;20.52;;;;;;;4.84;100.00;103486.84;4997792;28;20551;-73
2022/01/23 00:30:39;;;;;;;;;;;;;;;4.67;100.00;103487.88;4997527;28;20377;-74
2022/01/23 00:33:05;;;;;;;45.88;19.13;;;;;;;4.56;100.00;103465.84;5020194;28;20010;-73
2022/01/23 00:35:32;;;;;;;51.63;20.25;;;;;;;4.68;100.00;103484.31;4995682;28;20426;-73
2022/01/23 00:38:00;;;;;;;50.63;22.05;;;;;;;4.64;100.00;103479.91;5001793;28;20042;-74
2022/01/23 00:40:27;;;;;;;52.70;21.67;;;;;;;4.62;100.00;103477.28;4997183;28;20451;-74
2022/01/23 00:42:58;;;;;;;50.42;20.35;;;;;;;4.61;100.00;103474.66;5002918;28;20025;-74
2022/01/23 00:45:31;;;;;;;45.78;20.75;;;;;;;4.68;100.00;103489.63;4998042;28;20080;-74
2022/01/23 00:48:06;;;;;;;53.75;20.80;;;;;;;4.65;100.00;103484.34;4998089;28;20022;-73
2022/01/23 00:50:36;;;;;;;51.72;22.17;;;;;;;4.69;100.00;103483.41;4999317;28;21016;-73
2022/01/23 00:53:03;;;;;;;42.58;19.63;;;;;;;4.69;100.00;103478.09;5001368;28;20095;-74
2022/01/23 00:55:28;;;;;;;46.88;20.88;;;;;;;4.67;100.00;103479.88;4997441;28;20041;-74
2022/01/23 00:57:54;;;;;;;46.60;21.05;;;;;;;4.56;100.00;103452.53;4998297;28;20021;-73
2022/01/23 01:00:19;;;;;;;53.13;21.65;;;;;;;4.65;100.00;103471.03;4985335;28;20121;-74
2022/01/23 01:02:45;;;;;;;43.60;19.92;;;;;;;4.60;100.00;103456.94;5001749;28;20033;-74
2022/01/23 01:05:10;;;;;;;44.58;19.70;;;;;;;4.69;100.00;103485.22;4999407;28;20068;-73
2022/01/23 01:07:36;;;;;;;43.13;18.92;;;;;;;4.75;100.00;103485.16;5000154;28;20492;-74
2022/01/23 01:10:08;;;;;;;45.30;19.30;;;;;;;4.74;100.00;103486.91;4998246;28;20026;-73
2022/01/23 01:12:40;;;;;;;45.45;20.23;;;;;;;4.70;100.00;103492.31;5001676;28;20567;-74
2022/01/23 01:31:30;;;;;;;;;;;;;;;4.61;100.00;103480.84;5002609;28;20036;-74
2022/01/23 01:34:03;;;;;;;45.95;19.75;;;;;;;4.67;100.00;103484.34;4997472;28;19928;-74
2022/01/23 01:38:54;;;;;;;52.42;20.85;;;;;;;4.56;100.00;103464.03;4996390;28;20033;-73
2022/01/23 01:41:20;;;;;;;50.95;21.75;;;;;;;4.66;100.00;103488.78;5000708;28;20160;-73
2022/01/23 01:43:46;;;;;;;48.00;21.23;;;;;;;4.70;100.00;103500.28;4984153;28;20144;-73
2022/01/23 01:46:11;;;;;;;50.35;19.95;;;;;;;4.60;100.00;103476.41;5000198;28;20064;-73
2022/01/23 01:48:38;;;;;;;45.47;19.92;;;;;;;4.69;100.00;103494.06;4981228;28;20113;-73
2022/01/23 01:51:07;;;;;;;51.33;20.92;;;;;;;4.52;100.00;103482.72;5000971;28;20112;-73
2022/01/23 01:53:33;;;;;;;51.10;22.02;;;;;;;4.60;100.00;103502.16;4998391;28;20017;-73
2022/01/23 01:55:58;;;;;;;52.25;23.38;;;;;;;4.58;100.00;103494.19;4996256;28;20042;-73
2022/01/23 01:59:07;;;;;;;52.08;22.90;;;;;;;4.30;100.00;103469.63;4999519;28;20034;-73
2022/01/23 02:09:40;;;;;;;54.53;22.20;;;;;;;3.92;100.00;103444.22;5008302;28;20127;-73
2022/01/23 02:12:51;;;;;;;60.50;22.52;;;;;;;3.87;100.00;103428.31;4999570;28;20042;-73
2022/01/23 02:53:19;;;;;;;43.42;18.83;;;;;;;4.23;100.00;103450.19;5002817;28;20617;-73
2022/01/23 02:55:46;;;;;;;45.88;18.90;;;;;;;4.25;100.00;103443.06;5002456;28;20069;-73
2022/01/23 02:58:15;;;;;;;48.92;19.45;;;;;;;4.29;100.00;103434.16;5001778;28;20057;-73
2022/01/23 03:01:05;;;;;;;41.38;17.98;;;;;;;4.31;100.00;103436.81;4998384;28;20034;-73
2022/01/23 03:03:35;;;;;;;50.13;19.88;;;;;;;4.22;100.00;103434.22;4999402;28;20547;-73
2022/01/23 03:06:21;;;;;;;46.70;18.35;;;;;;;4.31;100.00;103455.44;5000570;28;20030;-72
2022/01/23 03:13:59;;;;;;;39.20;17.35;;;;;;;4.38;100.00;103469.56;5000831;28;20038;-72
2022/01/23 03:24:36;;;;;;;51.03;21.58;;;;;;;4.16;100.00;103424.53;4999274;28;20062;-73
2022/01/23 03:27:27;;;;;;;46.72;19.08;;;;;;;4.32;100.00;103451.88;5002554;28;20491;-72
2022/01/23 03:34:49;;;;;;;51.55;20.55;;;;;;;4.24;100.00;103457.25;5001340;28;20062;-72
2022/01/23 03:37:15;;;;;;;44.70;18.90;;;;;;;4.23;100.00;103455.50;5000819;28;20080;-72
2022/01/23 03:39:40;;;;;;;50.17;19.65;;;;;;;4.04;100.00;103433.50;5002579;28;20057;-73
2022/01/23 03:42:06;;;;;;;45.90;18.70;;;;;;;4.17;100.00;103461.75;5001239;28;20102;-72
2022/01/23 03:44:33;;;;;;;44.45;19.55;;;;;;;4.18;100.00;103459.97;5002022;28;20041;-73
2022/01/23 03:47:15;;;;;;;48.28;20.65;;;;;;;4.07;100.00;103433.50;4997192;28;20184;-72
2022/01/23 03:49:40;;;;;;;46.47;19.75;;;;;;;4.17;100.00;103475.03;5002478;28;20128;-73
2022/01/23 03:52:08;;;;;;;45.80;18.80;;;;;;;4.16;100.00;103469.75;5003313;28;20030;-72
2022/01/23 03:54:35;;;;;;;42.83;17.08;;;;;;;3.91;100.00;103432.72;4999767;28;20030;-72
2022/01/23 03:57:02;;;;;;;44.53;18.90;;;;;;;4.08;100.00;103477.78;4999064;28;20025;-72
2022/01/23 03:59:28;;;;;;;45.70;19.08;;;;;;;3.98;100.00;103447.72;5000273;28;20022;-72
2022/01/23 04:01:54;;;;;;;46.10;18.88;;;;;;;4.22;100.00;103480.34;5002130;28;20034;-73
2022/01/23 04:04:39;;;;;;;45.63;19.23;;;;;;;4.16;100.00;103469.75;4998908;28;20036;-73
2022/01/23 04:07:18;;;;;;;39.25;16.50;;;;;;;4.31;100.00;103496.19;4998490;28;20710;-73
2022/01/23 04:09:44;;;;;;;46.03;19.95;;;;;;;4.33;100.00;103496.19;5001496;28;20092;-73
2022/01/23 04:12:19;;;;;;;43.58;19.38;;;;;;;4.34;100.00;103482.00;5002133;28;20653;-73
2022/01/23 04:14:51;;;;;;;44.55;18.67;;;;;;;4.38;100.00;103483.72;5001297;28;20030;-73
2022/01/23 04:47:20;;;;;;;42.50;18.10;;;;;;;4.56;100.00;103479.13;4999834;28;20049;-73
2022/01/23 05:00:32;;;;;;;42.60;18.75;;;;;;;4.48;100.00;103468.56;4999582;28;20052;-73
2022/01/23 05:03:47;;;;;;;41.58;17.77;;;;;;;4.46;100.00;103459.72;5017515;28;20076;-72
2022/01/23 05:05:58;;;;;;;44.25;18.13;;;;;;;4.44;100.00;103466.84;5000444;28;20490;-72
2022/01/23 05:08:26;;;;;;;45.00;17.35;;;;;;;4.38;100.00;103446.47;5004303;28;20034;-72
2022/01/23 05:10:52;;;;;;;38.70;17.95;;;;;;;4.47;100.00;103475.66;4997929;28;20154;-72
2022/01/23 05:13:17;;;;;;;41.47;17.27;;;;;;;4.43;100.00;103457.09;4998414;28;20569;-73
2022/01/23 05:15:42;;;;;;;47.58;19.15;;;;;;;4.48;100.00;103471.25;5000518;28;20030;-72
2022/01/23 05:18:08;;;;;;;43.63;17.27;;;;;;;4.58;100.00;103486.19;4984209;28;20022;-73
2022/01/23 05:20:34;;;;;;;46.25;18.00;;;;;;;4.53;100.00;103482.69;4996197;28;20036;-73
2022/01/23 05:23:03;;;;;;;42.20;17.85;;;;;;;4.44;100.00;103466.84;4987242;28;20084;-72
2022/01/23 05:25:31;;;;;;;51.97;17.80;;;;;;;4.49;100.00;103479.19;4997962;28;20030;-73
2022/01/23 05:27:57;;;;;;;48.33;17.85;;;;;;;4.57;100.00;103481.78;5007092;28;20028;-73
2022/01/23 05:30:23;;;;;;;43.80;18.80;;;;;;;4.66;100.00;103496.75;4996871;28;20034;-73
2022/01/23 05:32:49;;;;;;;44.47;17.80;;;;;;;4.57;100.00;103472.91;4982954;28;20633;-74
2022/01/23 05:35:18;;;;;;;47.00;19.05;;;;;;;4.68;100.00;103489.63;4998167;28;20038;-73
2022/01/23 05:37:43;;;;;;;42.88;17.35;;;;;;;4.58;100.00;103474.69;5000673;28;20487;-73
2022/01/23 05:40:12;;;;;;;47.33;19.20;;;;;;;4.66;100.00;103483.44;4998109;28;20104;-73
2022/01/23 05:42:38;;;;;;;45.08;16.98;;;;;;;4.49;100.00;103470.34;4986835;28;20026;-73
2022/01/23 05:45:04;;;;;;;40.38;17.50;;;;;;;4.59;100.00;103484.44;5001791;28;20041;-73
2022/01/23 05:47:29;;;;;;;39.55;15.98;;;;;;;4.62;100.00;103481.75;5003166;28;20079;-72
2022/01/23 05:49:54;;;;;;;35.47;16.63;;;;;;;4.59;100.00;103474.66;4994881;28;20030;-73
2022/01/23 05:52:20;;;;;;;43.45;19.02;;;;;;;4.50;100.00;103458.81;5010952;28;20476;-72
2022/01/23 05:54:45;;;;;;;39.53;16.63;;;;;;;4.59;100.00;103487.97;4998156;28;20567;-73
2022/01/23 05:57:10;;;;;;;40.58;17.88;;;;;;;4.49;100.00;103468.53;4985745;28;20084;-73
2022/01/23 05:59:35;;;;;;;45.95;18.02;;;;;;;4.63;100.00;103488.84;4982421;28;21852;-72
2022/01/23 06:02:01;;;;;;;38.97;15.73;;;;;;;4.32;100.00;103442.09;5001958;28;20464;-73
2022/01/23 06:04:26;;;;;;;35.25;16.25;;;;;;;4.68;100.00;103496.75;4996493;28;20397;-73
2022/01/23 06:06:55;;;;;;;37.28;16.25;;;;;;;4.68;100.00;103489.63;4982869;28;20030;-72
2022/01/23 06:09:21;;;;;;;41.15;16.83;;;;;;;4.52;100.00;103464.97;4996631;28;20468;-72
2022/01/23 06:11:47;;;;;;;37.58;15.80;;;;;;;4.59;100.00;103482.63;5013751;28;20033;-73
2022/01/23 06:14:13;;;;;;;33.92;15.50;;;;;;;4.68;100.00;103489.63;4996954;28;20439;-72
2022/01/23 06:16:39;;;;;;;38.80;15.55;;;;;;;4.70;100.00;103490.50;4993914;28;20118;-72
2022/01/23 06:19:04;;;;;;;34.08;16.02;;;;;;;4.57;100.00;103470.25;4980082;28;20995;-73
2022/01/23 06:21:30;;;;;;;32.00;14.32;;;;;;;4.72;100.00;103499.34;4995460;28;20030;-72
2022/01/23 06:24:45;;;;;;;35.95;15.48;;;;;;;4.71;100.00;103499.38;4995128;28;20025;-72
2022/01/23 06:26:44;;;;;;;38.47;15.32;;;;;;;4.68;100.00;103496.75;4999181;28;20346;-73
2022/01/23 06:29:10;;;;;;;37.80;15.80;;;;;;;4.62;100.00;103495.91;4995727;28;20049;-73
2022/01/23 06:31:36;;;;;;;38.85;15.13;;;;;;;4.73;100.00;103500.25;4981399;28;20026;-73
2022/01/23 06:34:01;;;;;;;40.92;17.58;;;;;;;4.71;100.00;103502.06;4998484;28;20034;-73
2022/01/23 06:36:27;;;;;;;44.45;17.75;;;;;;;4.60;100.00;103495.03;4999372;28;20034;-73
2022/01/23 06:38:52;;;;;;;43.45;18.88;;;;;;;4.55;100.00;103502.19;4997359;28;20032;-73
2022/01/23 06:41:18;;;;;;;41.10;16.73;;;;;;;4.57;100.00;103503.06;4997978;28;20026;-73
2022/01/23 06:43:43;;;;;;;40.05;16.65;;;;;;;4.42;100.00;103482.78;4997946;28;20044;-73
2022/01/23 06:46:08;;;;;;;43.60;18.02;;;;;;;4.58;100.00;103503.97;4998749;28;20109;-73
2022/01/23 06:48:34;;;;;;;45.22;16.67;;;;;;;4.58;100.00;103506.63;4998505;28;20532;-73
2022/01/23 06:50:59;;;;;;;39.83;16.15;;;;;;;4.64;100.00;103515.41;5003747;28;20056;-73
2022/01/23 06:53:24;;;;;;;44.10;18.58;;;;;;;4.65;100.00;103510.97;4999830;28;21721;-73
2022/01/23 06:55:50;;;;;;;39.10;17.55;;;;;;;4.68;100.00;103516.25;5002551;28;20404;-73
2022/01/23 06:58:15;;;;;;;42.58;17.13;;;;;;;4.60;100.00;103512.81;4998663;28;20092;-72
2022/01/23 07:00:40;;;;;;;36.50;16.15;;;;;;;4.68;100.00;103529.56;4996255;28;20057;-73
2022/01/23 07:03:06;;;;;;;41.72;16.90;;;;;;;4.64;100.00;103527.81;4983603;28;20505;-73
2022/01/23 07:05:31;;;;;;;36.80;16.23;;;;;;;4.48;100.00;103503.16;4998457;28;20108;-73
2022/01/23 07:07:56;;;;;;;37.97;16.60;;;;;;;4.59;100.00;103530.53;4999876;28;20025;-73
2022/01/23 07:10:22;;;;;;;40.85;17.20;;;;;;;4.45;100.00;103512.03;5000710;28;20145;-73
2022/01/23 07:12:48;;;;;;;40.45;17.40;;;;;;;4.56;100.00;103532.34;4998269;28;20030;-73
2022/01/23 07:15:13;;;;;;;34.65;16.65;;;;;;;4.57;100.00;103527.00;5001455;28;20531;-73
2022/01/23 07:17:42;;;;;;;39.22;16.92;;;;;;;4.58;100.00;103533.22;4998782;28;20040;-73
2022/01/23 07:20:08;;;;;;;46.90;17.83;;;;;;;4.52;100.00;103535.94;4997801;28;20034;-73
2022/01/23 07:22:34;;;;;;;39.55;16.85;;;;;;;4.55;100.00;103543.91;5000169;28;20081;-73
2022/01/23 07:25:02;;;;;;;37.35;16.27;;;;;;;4.57;100.00;103539.44;5000257;28;20114;-74
2022/01/23 07:27:30;;;;;;;46.90;19.17;;;;;;;4.49;100.00;103535.06;5000530;28;20369;-73
2022/01/23 07:29:55;;;;;;;47.40;19.77;;;;;;;4.62;100.00;103545.63;5014428;28;20052;-73
2022/01/23 07:32:21;;;;;;;36.05;18.10;;;;;;;4.56;100.00;103533.22;4986848;28;20037;-74
2022/01/23 07:34:46;;;;;;;44.15;17.98;;;;;;;4.69;100.00;103559.75;4998741;28;20362;-73
2022/01/23 07:37:13;;;;;;;41.78;18.58;;;;;;;4.60;100.00;103548.28;4985323;28;20027;-73
2022/01/23 07:39:39;;;;;;;42.90;17.52;;;;;;;4.63;100.00;103566.88;4999286;28;20377;-73
2022/01/23 07:42:05;;;;;;;39.70;17.70;;;;;;;4.56;100.00;103561.63;5004592;28;20436;-73
2022/01/23 07:44:31;;;;;;;37.67;15.52;;;;;;;4.58;100.00;103562.50;5002568;28;20034;-74
2022/01/23 07:46:56;;;;;;;40.35;16.88;;;;;;;4.44;100.00;103552.84;5004742;28;20061;-74
2022/01/23 07:49:21;;;;;;;37.30;16.23;;;;;;;4.39;100.00;103553.78;4999284;28;20050;-74
2022/01/23 07:51:47;;;;;;;35.13;15.02;;;;;;;4.59;100.00;103569.59;5008088;28;20056;-74
2022/01/23 07:54:12;;;;;;;36.05;16.05;;;;;;;4.67;100.00;103573.03;5001790;28;20437;-74
2022/01/23 07:56:39;;;;;;;43.10;16.23;;;;;;;4.68;100.00;103565.94;5003318;28;20029;-73
2022/01/23 07:59:04;;;;;;;33.03;15.43;;;;;;;4.72;100.00;103571.22;5002423;28;20702;-73
2022/01/23 08:01:31;;;;;;;38.15;16.55;;;;;;;4.67;100.00;103550.88;5003421;28;20027;-74
2022/01/23 08:03:56;;;;;;;39.28;16.00;;;;;;;4.70;100.00;103566.81;5001810;28;20034;-73
2022/01/23 08:06:28;;;;;;;39.17;16.27;;;;;;;4.74;100.00;103572.09;5009805;28;20025;-73
2022/01/23 08:08:55;;;;;;;44.67;18.48;;;;;;;4.73;100.00;103573.00;5003383;28;20444;-74
2022/01/23 08:11:22;;;;;;;48.58;19.25;;;;;;;4.81;100.00;103586.22;5006497;28;20068;-75
2022/01/23 08:13:47;;;;;;;41.47;17.27;;;;;;;4.71;100.00;103573.91;5002591;28;20054;-74
2022/01/23 08:16:12;;;;;;;43.00;17.88;;;;;;;4.62;100.00;103570.44;5005156;28;20518;-74
2022/01/23 08:18:38;;;;;;;42.20;17.83;;;;;;;4.60;100.00;103566.03;5003100;28;20607;-73
2022/01/23 08:21:03;;;;;;;44.60;18.92;;;;;;;4.68;100.00;103581.91;5004716;28;20033;-74
2022/01/23 08:23:28;;;;;;;40.92;17.13;;;;;;;4.63;100.00;103577.53;5001116;28;20748;-74
2022/01/23 08:25:54;;;;;;;43.05;17.13;;;;;;;4.76;100.00;103590.72;5006179;28;20026;-73
2022/01/23 08:28:19;;;;;;;36.72;16.08;;;;;;;4.67;100.00;103572.19;5005010;28;20053;-74
2022/01/23 08:30:44;;;;;;;44.30;17.88;;;;;;;4.80;100.00;103588.03;5004616;28;20045;-74
2022/01/23 08:33:10;;;;;;;48.20;18.92;;;;;;;4.86;100.00;103592.41;5002173;28;20025;-74
2022/01/23 08:35:35;;;;;;;44.15;19.60;;;;;;;4.79;100.00;103588.91;5003969;28;20044;-74
2022/01/23 08:38:01;;;;;;;50.58;20.40;;;;;;;4.93;100.00;103594.09;5019174;28;20030;-73
2022/01/23 08:43:22;;;;;;;43.13;20.40;;;;;;;4.86;100.00;103588.88;5002642;28;20045;-74
2022/01/23 08:45:47;;;;;;;51.08;20.92;;;;;;;4.84;100.00;103570.22;4995560;28;20026;-74
2022/01/23 08:48:12;;;;;;;55.38;21.20;;;;;;;4.84;100.00;103578.22;4999966;28;20040;-74
2022/01/23 08:50:38;;;;;;;58.08;23.67;;;;;;;4.88;100.00;103587.94;4987276;28;20515;-74
2022/01/23 08:53:03;;;;;;;50.13;20.08;;;;;;;4.93;100.00;103594.09;4996597;28;20022;-74
2022/01/23 08:55:28;;;;;;;51.40;20.67;;;;;;;4.88;100.00;103590.59;5013779;28;20034;-73
2022/01/23 08:57:54;;;;;;;51.83;21.10;;;;;;;4.96;100.00;103606.50;4996928;28;20033;-73
2022/01/23 09:00:21;;;;;;;53.92;22.23;;;;;;;4.87;100.00;103588.84;4998984;28;20113;-73
2022/01/23 09:02:46;;;;;;;54.95;22.38;;;;;;;4.93;100.00;103596.78;4997459;28;20068;-73
2022/01/23 09:05:11;;;;;;;54.30;21.13;;;;;;;4.99;100.00;103600.28;5010136;28;20586;-71
2022/01/23 09:07:37;;;;;;;49.25;20.40;;;;;;;4.93;100.00;103590.53;4978186;28;20033;-71
2022/01/23 09:10:03;;;;;;;51.55;20.85;;;;;;;5.05;100.00;103610.84;4986663;28;20034;-71
2022/01/23 09:15:05;;;;;;;57.72;21.42;;;;;;;5.14;100.00;103610.75;4994562;28;20030;-72
2022/01/23 09:17:32;;;;;;;55.17;21.55;;;;;;;5.18;100.00;103596.50;4998673;28;20121;-70
2022/01/23 09:19:58;;;;;;;71.28;23.85;;;;;;;5.19;100.00;103608.03;4999346;28;20037;-71
2022/01/23 09:22:27;;;;;;;69.10;24.65;;;;;;;5.18;100.00;103603.59;4996310;28;20036;-71
2022/01/23 09:24:52;;;;;;;67.18;24.70;;;;;;;5.13;100.00;103586.81;4996477;28;20141;-71
2022/01/23 09:27:20;;;;;;;74.53;24.55;;;;;;;5.22;100.00;103606.25;4992613;28;21831;-71
2022/01/23 09:29:49;;;;;;;65.38;24.98;;;;;;;5.27;100.00;103602.66;4999197;28;20037;-71
2022/01/23 09:32:16;;;;;;;65.95;23.70;;;;;;;5.28;100.00;103612.41;4999483;28;20087;-71
2022/01/23 09:34:43;;;;;;;58.50;23.23;;;;;;;5.37;100.00;103612.28;4997381;28;20034;-71
2022/01/23 09:37:11;;;;;;;64.10;24.30;;;;;;;5.45;100.00;103612.19;5003864;28;20053;-72
2022/01/23 09:39:38;;;;;;;62.33;23.95;;;;;;;5.48;100.00;103615.72;4997712;28;20022;-71
2022/01/23 09:42:11;;;;;;;61.95;23.40;;;;;;;5.49;100.00;103619.25;4986317;28;20022;-71
2022/01/23 09:44:45;;;;;;;59.85;21.42;;;;;;;5.59;100.00;103623.59;4995198;28;20372;-71
2022/01/23 09:47:15;;;;;;;59.33;22.57;;;;;;;5.67;100.00;103623.50;5011216;28;20588;-71
2022/01/23 09:49:41;;;;;;;64.82;23.48;;;;;;;5.73;100.00;103623.41;4997860;28;20049;-71
2022/01/23 09:52:08;;;;;;;58.17;21.83;;;;;;;5.69;100.00;103622.56;4985131;28;20424;-71
2022/01/23 09:54:35;;;;;;;53.03;22.67;;;;;;;5.68;100.00;103617.25;4997723;28;20053;-71
2022/01/23 09:57:03;;;;;;;56.28;22.05;;;;;;;5.67;100.00;103615.50;5004721;28;20037;-71
2022/01/23 09:59:29;;;;;;;54.92;21.95;;;;;;;5.73;100.00;103610.09;4999055;28;20030;-71
2022/01/23 10:01:56;;;;;;;55.08;22.40;;;;;;;5.86;100.00;103626.81;5001936;28;20037;-71
2022/01/23 10:04:23;;;;;;;54.67;22.70;;;;;;;5.86;100.00;103634.81;4998089;28;20026;-71
2022/01/23 10:06:48;;;;;;;48.28;20.90;;;;;;;5.79;100.00;103610.03;5002268;28;20029;-71
2022/01/23 10:09:14;;;;;;;58.00;22.92;;;;;;;5.82;100.00;103622.41;4999680;28;20497;-71
2022/01/23 10:11:42;;;;;;;56.55;22.88;;;;;;;5.90;100.00;103627.63;5014896;28;20379;-71
2022/01/23 10:14:08;;;;;;;52.70;21.10;;;;;;;5.93;100.00;103631.16;4994104;28;20427;-71
2022/01/23 10:16:33;;;;;;;58.47;23.15;;;;;;;5.94;100.00;103634.69;4998792;28;20030;-71
2022/01/23 10:19:00;;;;;;;52.67;21.48;;;;;;;6.05;100.00;103635.47;4994930;28;20030;-71
2022/01/23 10:21:26;;;;;;;51.13;20.48;;;;;;;5.97;100.00;103611.53;4997687;28;20508;-71
2022/01/23 10:23:53;;;;;;;56.50;22.67;;;;;;;6.12;100.00;103631.81;4998811;28;20030;-70
2022/01/23 10:26:42;;;;;;;56.03;21.92;;;;;;;6.09;100.00;103638.97;5004368;28;20495;-70
2022/01/23 10:29:12;;;;;;;55.25;21.60;;;;;;;6.11;100.00;103639.84;4989378;28;20041;-71
2022/01/23 10:32:08;;;;;;;50.88;20.75;;;;;;;6.15;100.00;103637.09;5002635;28;20030;-71
2022/01/23 10:34:50;;;;;;;54.22;22.55;;;;;;;6.18;100.00;103624.63;4997292;28;20025;-71
2022/01/23 10:37:37;;;;;;;49.30;21.35;;;;;;;6.29;100.00;103631.56;4997826;28;20030;-71
2022/01/23 10:40:09;;;;;;;46.97;21.52;;;;;;;6.33;100.00;103616.41;5003150;28;20041;-71
2022/01/23 10:42:53;;;;;;;56.50;23.05;;;;;;;6.37;100.00;103628.78;5003085;28;20038;-71
2022/01/23 10:48:40;;;;;;;49.35;20.63;;;;;;;6.35;100.00;103624.38;5002378;28;20100;-71
2022/01/23 10:51:18;;;;;;;48.85;20.20;;;;;;;6.34;100.00;103626.19;5005483;28;20084;-71
2022/01/23 10:54:07;;;;;;;56.97;22.98;;;;;;;6.39;100.00;103626.09;4996920;28;20038;-71
2022/01/23 10:56:39;;;;;;;58.63;23.45;;;;;;;6.36;100.00;103626.13;4996081;28;20034;-71
2022/01/23 10:59:11;;;;;;;47.20;21.17;;;;;;;6.28;100.00;103621.78;5002265;28;20026;-71
2022/01/23 11:01:39;;;;;;;50.00;20.80;;;;;;;6.44;100.00;103625.09;4998575;28;20058;-71
2022/01/23 11:04:12;;;;;;;45.38;20.38;;;;;;;6.51;100.00;103622.34;4993854;28;20034;-71
2022/01/23 11:06:52;;;;;;;52.80;20.40;;;;;;;6.47;100.00;103618.84;4999311;28;20033;-71
2022/01/23 11:09:17;;;;;;;54.65;21.83;;;;;;;6.50;100.00;103610.78;5002630;28;20753;-71
2022/01/23 11:11:46;;;;;;;50.70;22.35;;;;;;;6.52;100.00;103614.31;5002065;28;20040;-71
2022/01/23 11:17:22;;;;;;;42.97;19.25;;;;;;;6.39;100.00;103586.94;5003948;28;20179;-72
2022/01/23 11:19:52;;;;;;;48.15;19.70;;;;;;;6.46;100.00;103606.41;5002836;28;20052;-71
2022/01/23 11:22:19;;;;;;;45.03;19.45;;;;;;;6.51;100.00;103604.53;5001350;28;20132;-71
2022/01/23 11:24:47;;;;;;;46.60;20.17;;;;;;;6.43;100.00;103575.31;5003699;28;20045;-71
2022/01/23 11:27:12;;;;;;;48.35;19.55;;;;;;;6.63;100.00;103595.44;4998898;28;20052;-71
2022/01/23 12:04:17;;;;;;;42.85;19.58;;;;;;;6.97;100.00;103585.97;5684468;22;20069;-75
2022/01/23 12:06:44;;;;;;;44.90;19.90;;;;;;;6.70;100.00;103574.88;5021070;28;20107;-78
2022/01/23 12:09:09;;;;;;;45.63;18.77;;;;;;;6.84;100.00;103582.66;5014042;28;20382;-78
2022/01/23 12:11:40;;;;;;;50.60;21.35;;;;;;;6.76;100.00;103569.41;5025781;28;20523;-74
2022/01/23 12:16:21;;;;;;;46.00;20.45;;;;;;;6.81;100.00;103583.56;5008399;28;20024;-75
2022/01/23 12:17:03;;;;;;;51.80;23.80;;;;;;;6.83;100.00;103573.72;5025169;28;20426;-75
2022/01/23 12:19:31;;;;;;;52.38;21.15;;;;;;;6.80;100.00;103572.91;5017209;28;20029;-77
2022/01/23 12:21:59;;;;;;;48.35;19.92;;;;;;;6.72;100.00;103562.38;5005172;28;20514;-79
2022/01/23 12:24:25;;;;;;;51.47;20.25;;;;;;;6.70;100.00;103561.53;5024478;28;20112;-77
2022/01/23 12:27:12;;;;;;;46.35;21.30;;;;;;;6.67;100.00;103553.56;5023064;28;20022;-77
2022/01/23 12:29:37;;;;;;;53.60;22.85;;;;;;;6.96;100.00;103566.38;5023687;28;20045;-77
2022/01/23 12:32:15;;;;;;;48.63;20.75;;;;;;;6.86;100.00;103559.47;5023238;28;20667;-79
2022/01/23 12:35:01;;;;;;;48.15;20.30;;;;;;;6.79;100.00;103555.13;5009457;28;20055;-76
2022/01/23 12:37:28;;;;;;;44.53;19.77;;;;;;;6.68;100.00;103539.31;5005536;28;20028;-77
2022/01/23 12:40:22;;;;;;;47.85;21.67;;;;;;;6.94;100.00;103545.97;5014216;28;20110;-79
2022/01/23 12:43:07;;;;;;;50.92;23.83;;;;;;;6.96;100.00;103549.47;5003364;28;20057;-77
2022/01/23 12:45:52;;;;;;;52.38;21.70;;;;;;;6.84;100.00;103553.25;5002429;28;20041;-79
2022/01/23 12:48:27;;;;;;;50.83;22.27;;;;;;;6.96;100.00;103544.13;5014567;28;20079;-77
2022/01/23 12:50:58;;;;;;;54.95;21.85;;;;;;;6.92;100.00;103545.09;5019878;28;20025;-78
2022/01/23 12:53:45;;;;;;;46.15;19.63;;;;;;;6.85;100.00;103549.69;5019237;28;20030;-77
2022/01/23 12:56:14;;;;;;;45.67;18.80;;;;;;;6.88;100.00;103545.16;5004489;28;20037;-77
2022/01/23 12:58:41;;;;;;;38.72;18.05;;;;;;;6.77;100.00;103536.44;5002578;28;20493;-77
2022/01/23 13:01:18;;;;;;;41.38;19.50;;;;;;;6.74;100.00;103539.22;5019330;28;20477;-77
2022/01/23 13:03:51;;;;;;;43.53;19.50;;;;;;;6.83;100.00;103540.81;5018450;28;20026;-77
2022/01/23 13:06:17;;;;;;;42.50;17.90;;;;;;;6.85;100.00;103531.84;5009428;28;20570;-77
2022/01/23 13:08:46;;;;;;;36.97;18.02;;;;;;;6.85;100.00;103531.00;5025433;28;20114;-77
2022/01/23 13:13:59;;;;;;;58.13;19.90;;;;;;;7.02;100.00;103531.53;5020776;28;20455;-77
2022/01/23 13:16:38;;;;;;;42.42;19.40;;;;;;;6.68;100.00;103509.94;5023139;28;20471;-77
2022/01/23 13:19:32;;;;;;;41.50;18.95;;;;;;;6.71;100.00;103524.09;5009013;28;20057;-77
2022/01/23 13:30:19;;;;;;;44.22;17.95;;;;;;;6.70;100.00;103522.34;5011484;28;20025;-76
2022/01/23 13:32:47;;;;;;;41.78;18.70;;;;;;;6.75;100.00;103516.94;5021604;28;20037;-76
2022/01/23 13:35:16;;;;;;;39.55;19.27;;;;;;;6.77;100.00;103530.25;5021282;28;20026;-77
2022/01/23 13:37:44;;;;;;;41.08;18.63;;;;;;;6.74;100.00;103515.19;5022752;28;20057;-78
2022/01/23 13:40:09;;;;;;;42.17;18.88;;;;;;;6.83;100.00;103530.13;5001228;28;20032;-78
2022/01/23 13:42:53;;;;;;;43.00;19.83;;;;;;;6.85;100.00;103531.00;5018913;28;20025;-76
2022/01/23 13:49:09;;;;;;;47.70;21.95;;;;;;;7.06;99.89;103521.66;5005792;28;20341;-73
2022/01/23 14:04:28;;;;;;;41.63;18.83;;;;;;;6.81;100.00;103515.94;5011717;28;20483;-77
2022/01/23 14:06:54;;;;;;;45.70;20.40;;;;;;;6.79;100.00;103512.41;5004095;28;20037;-77
2022/01/23 14:09:20;;;;;;;43.17;18.75;;;;;;;6.92;100.00;103521.94;5026324;28;20025;-77
2022/01/23 14:11:46;;;;;;;43.60;19.52;;;;;;;6.86;100.00;103514.94;5005769;28;20117;-77
2022/01/23 14:14:21;;;;;;;40.80;18.17;;;;;;;6.82;100.00;103510.53;5025661;28;20029;-77
2022/01/23 14:16:48;;;;;;;;;;;;;;;6.78;100.00;103505.31;5022448;28;20391;-77
2022/01/23 14:19:15;;;;;;;50.28;20.92;;;;;;;6.79;100.00;103509.72;5007878;28;19921;-77
2022/01/23 14:21:42;;;;;;;43.72;18.83;;;;;;;6.69;100.00;103506.38;5000376;28;20376;-77
2022/01/23 14:24:07;;;;;;;44.38;18.40;;;;;;;6.62;100.00;103510.94;5027841;28;20069;-77
2022/01/23 14:26:32;;;;;;;43.10;18.98;;;;;;;6.56;100.00;103498.56;5001390;28;20472;-80
2022/01/23 14:29:06;;;;;;;45.92;21.17;;;;;;;6.62;100.00;103508.28;5018083;28;20473;-79
2022/01/23 14:31:39;;;;;;;46.67;18.97;;;;;;;6.65;100.00;103507.31;5005875;28;20494;-79
2022/01/23 14:34:23;;;;;;;48.35;20.40;;;;;;;6.63;100.00;103522.50;5008632;28;20036;-79
2022/01/23 14:36:48;;;;;;;;;;;;;;;6.54;100.00;103515.53;4990019;28;20170;-79
2022/01/23 14:39:14;;;;;;;42.50;18.23;;;;;;;6.48;100.00;103503.19;5024867;28;19917;-79
2022/01/23 14:41:42;;;;;;;39.25;18.13;;;;;;;6.51;100.00;103508.44;5024732;28;20031;-79
2022/01/23 14:44:20;;;;;;;39.30;17.65;;;;;;;6.57;100.00;103519.00;5021751;28;20029;-73